createdAt,value
2022-12-08T00:00:07.402Z,25.93
2022-12-08T00:00:37.400Z,25.93
2022-12-08T00:01:07.449Z,25.93
2022-12-08T00:01:37.547Z,25.91
2022-12-08T00:02:07.736Z,25.91
2022-12-08T00:02:37.778Z,25.93
2022-12-08T00:03:07.781Z,25.92
2022-12-08T00:03:37.747Z,25.92
2022-12-08T00:04:07.794Z,25.92
2022-12-08T00:04:37.794Z,25.93
2022-12-08T00:05:07.914Z,25.93
2022-12-08T00:05:37.911Z,25.93
2022-12-08T00:06:07.922Z,25.93
2022-12-08T00:06:38.039Z,25.91
2022-12-08T00:07:08.038Z,25.93
2022-12-08T00:07:38.090Z,25.95
2022-12-08T00:08:08.194Z,25.95
2022-12-08T00:08:38.053Z,25.95
2022-12-08T00:09:08.180Z,25.93
2022-12-08T00:09:39.686Z,25.93
2022-12-08T00:10:39.826Z,25.92
2022-12-08T00:10:48.923Z,25.93
2022-12-08T00:11:08.290Z,25.93
2022-12-08T00:11:38.296Z,25.91
2022-12-08T00:12:08.290Z,25.92
2022-12-08T00:12:38.407Z,25.92
2022-12-08T00:13:08.532Z,25.91
2022-12-08T00:13:38.525Z,25.93
2022-12-08T00:14:08.563Z,25.93
2022-12-08T00:14:38.532Z,25.92
2022-12-08T00:15:08.650Z,25.89
2022-12-08T00:15:38.763Z,25.92
2022-12-08T00:16:08.938Z,25.92
2022-12-08T00:16:38.985Z,25.92
2022-12-08T00:17:09.033Z,25.92
2022-12-08T00:17:39.024Z,25.91
2022-12-08T00:18:09.023Z,25.91
2022-12-08T00:18:39.141Z,25.89
2022-12-08T00:19:09.141Z,25.91
2022-12-08T00:19:39.137Z,25.92
2022-12-08T00:20:09.249Z,25.92
2022-12-08T00:20:39.369Z,25.91
2022-12-08T00:21:09.366Z,25.89
2022-12-08T00:21:39.359Z,25.91
2022-12-08T00:22:09.357Z,25.93
2022-12-08T00:22:39.348Z,25.89
2022-12-08T00:23:09.465Z,25.93
2022-12-08T00:23:39.460Z,25.91
2022-12-08T00:24:09.461Z,25.89
2022-12-08T00:24:39.480Z,25.92
2022-12-08T00:25:09.566Z,25.91
2022-12-08T00:25:39.599Z,25.89
2022-12-08T00:26:09.599Z,25.88
2022-12-08T00:26:39.709Z,25.91
2022-12-08T00:27:09.848Z,25.89
2022-12-08T00:27:39.824Z,25.89
2022-12-08T00:28:09.942Z,25.91
2022-12-08T00:28:39.939Z,25.89
2022-12-08T00:29:15.839Z,25.89
2022-12-08T00:29:40.108Z,25.91
2022-12-08T00:30:10.074Z,25.91
2022-12-08T00:30:40.209Z,25.88
2022-12-08T00:31:10.209Z,25.88
2022-12-08T00:31:40.416Z,25.91
2022-12-08T00:32:10.473Z,25.91
2022-12-08T00:32:40.345Z,25.88
2022-12-08T00:33:10.460Z,25.89
2022-12-08T00:33:40.457Z,25.89
2022-12-08T00:34:10.589Z,25.89
2022-12-08T00:34:40.585Z,25.89
2022-12-08T00:35:10.579Z,25.89
2022-12-08T00:35:43.200Z,25.88
2022-12-08T00:36:10.795Z,25.88
2022-12-08T00:36:40.791Z,25.88
2022-12-08T00:37:10.791Z,25.89
2022-12-08T00:37:40.780Z,25.88
2022-12-08T00:38:10.778Z,25.91
2022-12-08T00:38:40.895Z,25.87
2022-12-08T00:39:11.009Z,25.89
2022-12-08T00:39:41.125Z,25.88
2022-12-08T00:40:11.121Z,25.88
2022-12-08T00:40:41.252Z,25.87
2022-12-08T00:41:11.244Z,25.91
2022-12-08T00:41:41.240Z,25.89
2022-12-08T00:42:11.357Z,25.88
2022-12-08T00:42:41.473Z,25.89
2022-12-08T00:43:11.589Z,25.88
2022-12-08T00:43:41.586Z,25.88
2022-12-08T00:44:11.705Z,25.89
2022-12-08T00:44:41.725Z,25.87
2022-12-08T00:45:11.697Z,25.88
2022-12-08T00:45:41.901Z,25.87
2022-12-08T00:46:12.047Z,25.89
2022-12-08T00:46:41.976Z,25.88
2022-12-08T00:47:12.094Z,25.89
2022-12-08T00:47:42.211Z,25.87
2022-12-08T00:48:12.207Z,25.87
2022-12-08T00:48:42.325Z,25.87
2022-12-08T00:49:13.907Z,25.88
2022-12-08T00:49:43.027Z,25.88
2022-12-08T00:50:13.061Z,25.88
2022-12-08T00:50:42.675Z,25.88
2022-12-08T00:51:12.764Z,25.88
2022-12-08T00:51:42.840Z,25.88
2022-12-08T00:52:12.935Z,25.89
2022-12-08T00:52:43.009Z,25.88
2022-12-08T00:53:13.090Z,25.88
2022-12-08T00:53:43.175Z,25.87
2022-12-08T00:54:13.254Z,25.87
2022-12-08T00:54:43.346Z,25.88
2022-12-08T00:55:13.426Z,25.85
2022-12-08T00:55:43.507Z,25.88
2022-12-08T00:56:13.584Z,25.87
2022-12-08T00:56:43.672Z,25.88
2022-12-08T00:57:13.749Z,25.87
2022-12-08T00:57:43.835Z,25.87
2022-12-08T00:58:13.919Z,25.85
2022-12-08T00:58:43.992Z,25.88
2022-12-08T00:59:14.078Z,25.89
2022-12-08T00:59:44.209Z,25.87
2022-12-08T01:00:14.166Z,25.87
2022-12-08T01:00:44.349Z,25.85
2022-12-08T01:01:14.407Z,25.88
2022-12-08T01:01:44.484Z,25.85
2022-12-08T01:02:14.478Z,25.85
2022-12-08T01:02:44.596Z,25.87
2022-12-08T01:03:14.717Z,25.87
2022-12-08T01:03:44.740Z,25.84
2022-12-08T01:04:14.786Z,25.87
2022-12-08T01:04:44.906Z,25.84
2022-12-08T01:05:14.899Z,25.85
2022-12-08T01:05:45.016Z,25.87
2022-12-08T01:06:15.015Z,25.87
2022-12-08T01:06:45.011Z,25.85
2022-12-08T01:07:15.005Z,25.87
2022-12-08T01:07:45.092Z,25.82
2022-12-08T01:08:15.206Z,25.87
2022-12-08T01:08:45.086Z,25.85
2022-12-08T01:09:15.085Z,25.85
2022-12-08T01:09:45.199Z,25.84
2022-12-08T01:10:15.313Z,25.82
2022-12-08T01:10:45.436Z,25.84
2022-12-08T01:11:15.435Z,25.85
2022-12-08T01:11:45.444Z,25.85
2022-12-08T01:12:15.456Z,25.84
2022-12-08T01:12:45.455Z,25.84
2022-12-08T01:13:15.572Z,25.84
2022-12-08T01:13:45.577Z,25.82
2022-12-08T01:14:15.588Z,25.85
2022-12-08T01:14:45.688Z,25.85
2022-12-08T01:15:15.704Z,25.85
2022-12-08T01:15:45.676Z,25.85
2022-12-08T01:16:15.817Z,25.84
2022-12-08T01:16:45.989Z,25.87
2022-12-08T01:17:15.995Z,25.85
2022-12-08T01:17:46.118Z,25.84
2022-12-08T01:18:16.231Z,25.85
2022-12-08T01:18:46.352Z,25.81
2022-12-08T01:19:16.347Z,25.81
2022-12-08T01:19:46.466Z,25.82
2022-12-08T01:20:16.594Z,25.85
2022-12-08T01:20:46.581Z,25.81
2022-12-08T01:21:16.705Z,25.84
2022-12-08T01:21:46.694Z,25.84
2022-12-08T01:22:16.691Z,25.87
2022-12-08T01:22:46.689Z,25.82
2022-12-08T01:23:16.804Z,25.82
2022-12-08T01:23:46.941Z,25.82
2022-12-08T01:24:16.934Z,25.84
2022-12-08T01:24:47.052Z,25.81
2022-12-08T01:25:17.171Z,25.82
2022-12-08T01:25:47.288Z,25.84
2022-12-08T01:26:17.410Z,25.81
2022-12-08T01:26:47.522Z,25.81
2022-12-08T01:27:17.516Z,25.84
2022-12-08T01:27:47.637Z,25.81
2022-12-08T01:28:17.753Z,25.82
2022-12-08T01:28:47.873Z,25.82
2022-12-08T01:29:17.994Z,25.84
2022-12-08T01:29:47.987Z,25.82
2022-12-08T01:30:18.012Z,25.82
2022-12-08T01:30:48.069Z,25.79
2022-12-08T01:31:18.217Z,25.84
2022-12-08T01:31:48.088Z,25.81
2022-12-08T01:32:18.085Z,25.81
2022-12-08T01:32:48.199Z,25.79
2022-12-08T01:33:18.193Z,25.79
2022-12-08T01:33:48.190Z,25.79
2022-12-08T01:34:18.308Z,25.81
2022-12-08T01:34:48.301Z,25.81
2022-12-08T01:35:18.293Z,25.82
2022-12-08T01:35:48.430Z,25.81
2022-12-08T01:36:18.419Z,25.79
2022-12-08T01:36:48.537Z,25.79
2022-12-08T01:37:18.652Z,25.81
2022-12-08T01:37:48.770Z,25.78
2022-12-08T01:38:18.789Z,25.81
2022-12-08T01:38:48.786Z,25.81
2022-12-08T01:39:18.916Z,25.81
2022-12-08T01:39:48.911Z,25.82
2022-12-08T01:40:18.904Z,25.81
2022-12-08T01:40:49.016Z,25.81
2022-12-08T01:41:19.018Z,25.82
2022-12-08T01:41:49.132Z,25.82
2022-12-08T01:42:19.250Z,25.81
2022-12-08T01:42:49.390Z,25.79
2022-12-08T01:43:19.391Z,25.79
2022-12-08T01:43:49.510Z,25.79
2022-12-08T01:44:19.629Z,25.78
2022-12-08T01:44:49.621Z,25.81
2022-12-08T01:45:19.615Z,25.79
2022-12-08T01:45:49.817Z,25.81
2022-12-08T01:46:19.878Z,25.78
2022-12-08T01:46:49.870Z,25.81
2022-12-08T01:47:19.977Z,25.79
2022-12-08T01:47:50.076Z,25.79
2022-12-08T01:48:20.061Z,25.79
2022-12-08T01:48:50.084Z,25.81
2022-12-08T01:49:20.077Z,25.79
2022-12-08T01:49:50.196Z,25.81
2022-12-08T01:50:20.272Z,25.79
2022-12-08T01:50:50.359Z,25.78
2022-12-08T01:51:20.450Z,25.81
2022-12-08T01:51:50.532Z,25.79
2022-12-08T01:52:20.614Z,25.79
2022-12-08T01:52:50.696Z,25.78
2022-12-08T01:53:20.778Z,25.79
2022-12-08T01:53:50.858Z,25.79
2022-12-08T01:54:20.950Z,25.78
2022-12-08T01:54:51.027Z,25.78
2022-12-08T01:55:21.101Z,25.79
2022-12-08T01:55:51.193Z,25.78
2022-12-08T01:56:21.282Z,25.78
2022-12-08T01:56:51.359Z,25.81
2022-12-08T01:57:21.442Z,25.79
2022-12-08T01:57:51.528Z,25.77
2022-12-08T01:58:21.607Z,25.78
2022-12-08T01:58:51.693Z,25.78
2022-12-08T01:59:21.778Z,25.79
2022-12-08T01:59:51.863Z,25.79
2022-12-08T02:00:21.983Z,25.78
2022-12-08T02:00:52.072Z,25.75
2022-12-08T02:01:22.090Z,25.81
2022-12-08T02:01:52.154Z,25.75
2022-12-08T02:02:22.142Z,25.77
2022-12-08T02:02:52.201Z,25.79
2022-12-08T02:03:22.158Z,25.78
2022-12-08T02:03:52.159Z,25.79
2022-12-08T02:04:22.161Z,25.77
2022-12-08T02:04:52.155Z,25.78
2022-12-08T02:05:22.291Z,25.77
2022-12-08T02:05:52.288Z,25.81
2022-12-08T02:06:22.396Z,25.78
2022-12-08T02:06:52.515Z,25.77
2022-12-08T02:07:22.511Z,25.78
2022-12-08T02:07:52.668Z,25.79
2022-12-08T02:08:22.695Z,25.79
2022-12-08T02:08:52.699Z,25.77
2022-12-08T02:09:22.820Z,25.77
2022-12-08T02:09:52.809Z,25.77
2022-12-08T02:10:22.810Z,25.77
2022-12-08T02:10:52.924Z,25.77
2022-12-08T02:11:22.940Z,25.77
2022-12-08T02:11:52.943Z,25.78
2022-12-08T02:12:23.066Z,25.78
2022-12-08T02:12:53.169Z,25.75
2022-12-08T02:13:23.166Z,25.77
2022-12-08T02:13:53.287Z,25.77
2022-12-08T02:14:23.405Z,25.78
2022-12-08T02:14:53.401Z,25.77
2022-12-08T02:15:23.519Z,25.75
2022-12-08T02:15:53.738Z,25.75
2022-12-08T02:16:23.795Z,25.77
2022-12-08T02:16:53.773Z,25.74
2022-12-08T02:17:23.890Z,25.77
2022-12-08T02:17:53.886Z,25.77
2022-12-08T02:18:24.005Z,25.77
2022-12-08T02:19:22.456Z,25.74
2022-12-08T02:19:31.858Z,25.75
2022-12-08T02:19:54.158Z,25.74
2022-12-08T02:20:24.154Z,25.75
2022-12-08T02:20:54.155Z,25.74
2022-12-08T02:21:24.141Z,25.78
2022-12-08T02:21:54.264Z,25.75
2022-12-08T02:22:24.256Z,25.77
2022-12-08T02:22:54.253Z,25.77
2022-12-08T02:23:24.367Z,25.77
2022-12-08T02:23:54.493Z,25.74
2022-12-08T02:24:24.485Z,25.75
2022-12-08T02:24:54.606Z,25.75
2022-12-08T02:25:24.603Z,25.77
2022-12-08T02:25:54.721Z,25.78
2022-12-08T02:26:24.841Z,25.75
2022-12-08T02:26:54.960Z,25.75
2022-12-08T02:27:24.957Z,25.74
2022-12-08T02:27:54.952Z,25.74
2022-12-08T02:28:25.066Z,25.75
2022-12-08T02:28:55.063Z,25.77
2022-12-08T02:29:25.181Z,25.78
2022-12-08T02:29:55.296Z,25.74
2022-12-08T02:30:25.295Z,25.74
2022-12-08T02:30:55.456Z,25.75
2022-12-08T02:31:25.395Z,25.75
2022-12-08T02:31:55.412Z,25.75
2022-12-08T02:32:25.405Z,25.75
2022-12-08T02:32:55.521Z,25.74
2022-12-08T02:33:25.515Z,25.74
2022-12-08T02:33:55.638Z,25.74
2022-12-08T02:34:25.751Z,25.75
2022-12-08T02:34:55.749Z,25.74
2022-12-08T02:35:25.740Z,25.74
2022-12-08T02:35:55.860Z,25.72
2022-12-08T02:36:25.854Z,25.72
2022-12-08T02:36:55.886Z,25.77
2022-12-08T02:37:25.879Z,25.74
2022-12-08T02:37:55.996Z,25.75
2022-12-08T02:38:25.993Z,25.75
2022-12-08T02:38:56.116Z,25.74
2022-12-08T02:39:26.105Z,25.74
2022-12-08T02:39:56.223Z,25.74
2022-12-08T02:40:26.342Z,25.75
2022-12-08T02:40:56.459Z,25.75
2022-12-08T02:41:26.459Z,25.74
2022-12-08T02:41:56.454Z,25.74
2022-12-08T02:42:26.564Z,25.74
2022-12-08T02:42:56.686Z,25.74
2022-12-08T02:43:26.685Z,25.72
2022-12-08T02:43:56.817Z,25.74
2022-12-08T02:44:26.829Z,25.72
2022-12-08T02:44:56.823Z,25.72
2022-12-08T02:45:26.948Z,25.72
2022-12-08T02:45:56.976Z,25.72
2022-12-08T02:46:27.029Z,25.74
2022-12-08T02:46:57.065Z,25.74
2022-12-08T02:47:27.031Z,25.74
2022-12-08T02:47:57.151Z,25.72
2022-12-08T02:48:27.146Z,25.74
2022-12-08T02:48:57.269Z,25.72
2022-12-08T02:49:27.262Z,25.72
2022-12-08T02:49:57.369Z,25.74
2022-12-08T02:50:27.453Z,25.72
2022-12-08T02:50:57.532Z,25.72
2022-12-08T02:51:27.619Z,25.71
2022-12-08T02:51:57.700Z,25.71
2022-12-08T02:52:27.780Z,25.71
2022-12-08T02:52:57.854Z,25.71
2022-12-08T02:53:27.938Z,25.70
2022-12-08T02:53:58.035Z,25.71
2022-12-08T02:54:28.113Z,25.72
2022-12-08T02:54:58.193Z,25.72
2022-12-08T02:55:28.278Z,25.71
2022-12-08T02:55:58.382Z,25.72
2022-12-08T02:56:28.467Z,25.74
2022-12-08T02:56:58.545Z,25.72
2022-12-08T02:57:28.632Z,25.71
2022-12-08T02:57:58.711Z,25.71
2022-12-08T02:58:28.797Z,25.72
2022-12-08T02:58:58.902Z,25.71
2022-12-08T02:59:28.978Z,25.72
2022-12-08T02:59:59.079Z,25.72
2022-12-08T03:00:29.196Z,25.72
2022-12-08T03:00:59.193Z,25.71
2022-12-08T03:01:29.371Z,25.71
2022-12-08T03:01:59.481Z,25.71
2022-12-08T03:02:29.537Z,25.74
2022-12-08T03:02:59.582Z,25.72
2022-12-08T03:03:29.596Z,25.71
2022-12-08T03:03:59.592Z,25.71
2022-12-08T03:04:29.588Z,25.72
2022-12-08T03:04:59.708Z,25.71
2022-12-08T03:05:29.707Z,25.70
2022-12-08T03:05:59.708Z,25.68
2022-12-08T03:06:29.702Z,25.71
2022-12-08T03:06:59.700Z,25.70
2022-12-08T03:07:29.703Z,25.70
2022-12-08T03:07:59.794Z,25.71
2022-12-08T03:08:29.857Z,25.71
2022-12-08T03:08:59.854Z,25.71
2022-12-08T03:09:29.852Z,25.71
2022-12-08T03:09:59.844Z,25.71
2022-12-08T03:10:29.840Z,25.70
2022-12-08T03:10:59.962Z,25.70
2022-12-08T03:11:30.077Z,25.70
2022-12-08T03:12:00.086Z,25.70
2022-12-08T03:12:30.069Z,25.67
2022-12-08T03:13:00.190Z,25.71
2022-12-08T03:13:30.312Z,25.67
2022-12-08T03:14:00.307Z,25.68
2022-12-08T03:14:30.427Z,25.68
2022-12-08T03:15:00.544Z,25.70
2022-12-08T03:15:30.615Z,25.68
2022-12-08T03:16:00.701Z,25.67
2022-12-08T03:16:30.801Z,25.71
2022-12-08T03:17:00.779Z,25.68
2022-12-08T03:17:30.929Z,25.67
2022-12-08T03:18:00.935Z,25.68
2022-12-08T03:18:30.914Z,25.70
2022-12-08T03:19:00.910Z,25.67
2022-12-08T03:19:31.022Z,25.68
2022-12-08T03:20:01.416Z,25.65
2022-12-08T03:20:31.253Z,25.67
2022-12-08T03:21:01.246Z,25.68
2022-12-08T03:21:31.243Z,25.67
2022-12-08T03:22:01.233Z,25.70
2022-12-08T03:22:31.357Z,25.67
2022-12-08T03:23:01.350Z,25.68
2022-12-08T03:23:31.350Z,25.68
2022-12-08T03:24:01.344Z,25.68
2022-12-08T03:24:31.465Z,25.67
2022-12-08T03:25:01.583Z,25.68
2022-12-08T03:25:31.582Z,25.65
2022-12-08T03:26:01.702Z,25.68
2022-12-08T03:26:31.818Z,25.67
2022-12-08T03:27:01.812Z,25.67
2022-12-08T03:27:31.814Z,25.68
2022-12-08T03:28:01.804Z,25.67
2022-12-08T03:28:31.824Z,25.65
2022-12-08T03:29:01.839Z,25.67
2022-12-08T03:29:31.957Z,25.67
2022-12-08T03:30:02.220Z,25.67
2022-12-08T03:30:32.055Z,25.67
2022-12-08T03:31:02.135Z,25.65
2022-12-08T03:31:32.210Z,25.62
2022-12-08T03:32:02.221Z,25.68
2022-12-08T03:32:32.222Z,25.64
2022-12-08T03:33:02.238Z,25.65
2022-12-08T03:33:32.216Z,25.64
2022-12-08T03:34:02.218Z,25.65
2022-12-08T03:34:32.213Z,25.64
2022-12-08T03:35:02.214Z,25.64
2022-12-08T03:35:32.209Z,25.65
2022-12-08T03:36:02.322Z,25.67
2022-12-08T03:36:32.321Z,25.64
2022-12-08T03:37:02.315Z,25.68
2022-12-08T03:37:32.441Z,25.64
2022-12-08T03:38:02.432Z,25.64
2022-12-08T03:38:32.568Z,25.65
2022-12-08T03:39:02.560Z,25.64
2022-12-08T03:39:32.678Z,25.64
2022-12-08T03:40:02.981Z,25.65
2022-12-08T03:40:32.722Z,25.64
2022-12-08T03:41:02.831Z,25.65
2022-12-08T03:41:32.834Z,25.65
2022-12-08T03:42:02.829Z,25.65
2022-12-08T03:42:32.951Z,25.64
2022-12-08T03:43:02.942Z,25.64
2022-12-08T03:43:32.940Z,25.64
2022-12-08T03:44:02.937Z,25.64
2022-12-08T03:44:32.931Z,25.64
2022-12-08T03:45:02.927Z,25.65
2022-12-08T03:45:33.045Z,25.64
2022-12-08T03:46:03.117Z,25.67
2022-12-08T03:46:33.127Z,25.65
2022-12-08T03:47:03.119Z,25.65
2022-12-08T03:47:33.239Z,25.61
2022-12-08T03:48:03.232Z,25.65
2022-12-08T03:48:33.255Z,25.64
2022-12-08T03:49:03.223Z,25.65
2022-12-08T03:49:33.224Z,25.64
2022-12-08T03:50:03.821Z,25.65
2022-12-08T03:50:33.424Z,25.65
2022-12-08T03:51:03.507Z,25.64
2022-12-08T03:51:33.593Z,25.64
2022-12-08T03:52:03.668Z,25.62
2022-12-08T03:52:33.748Z,25.64
2022-12-08T03:53:03.830Z,25.62
2022-12-08T03:53:33.926Z,25.62
2022-12-08T03:54:04.011Z,25.64
2022-12-08T03:54:34.111Z,25.65
2022-12-08T03:55:04.192Z,25.65
2022-12-08T03:55:34.276Z,25.64
2022-12-08T03:56:04.360Z,25.62
2022-12-08T03:56:34.437Z,25.64
2022-12-08T03:57:04.523Z,25.65
2022-12-08T03:57:34.605Z,25.65
2022-12-08T03:58:04.682Z,25.65
2022-12-08T03:58:37.593Z,25.62
2022-12-08T03:59:04.770Z,25.62
2022-12-08T03:59:34.847Z,25.62
2022-12-08T04:00:05.239Z,25.61
2022-12-08T04:00:35.028Z,25.62
2022-12-08T04:01:05.021Z,25.62
2022-12-08T04:01:35.063Z,25.62
2022-12-08T04:02:05.153Z,25.61
2022-12-08T04:02:35.201Z,25.64
2022-12-08T04:03:05.227Z,25.62
2022-12-08T04:03:35.241Z,25.62
2022-12-08T04:04:05.261Z,25.62
2022-12-08T04:04:35.348Z,25.62
2022-12-08T04:05:05.344Z,25.62
2022-12-08T04:05:35.343Z,25.60
2022-12-08T04:06:05.456Z,25.61
2022-12-08T04:06:35.459Z,25.62
2022-12-08T04:07:05.454Z,25.62
2022-12-08T04:07:35.724Z,25.61
2022-12-08T04:08:05.795Z,25.62
2022-12-08T04:08:35.686Z,25.61
2022-12-08T04:09:05.685Z,25.62
2022-12-08T04:09:35.799Z,25.61
2022-12-08T04:10:06.015Z,25.62
2022-12-08T04:10:35.802Z,25.61
2022-12-08T04:11:05.919Z,25.62
2022-12-08T04:11:35.913Z,25.61
2022-12-08T04:12:05.909Z,25.64
2022-12-08T04:12:36.024Z,25.62
2022-12-08T04:13:06.016Z,25.62
2022-12-08T04:13:36.024Z,25.61
2022-12-08T04:14:06.013Z,25.61
2022-12-08T04:14:36.125Z,25.62
2022-12-08T04:15:06.121Z,25.60
2022-12-08T04:15:36.319Z,25.61
2022-12-08T04:16:06.399Z,25.61
2022-12-08T04:16:36.336Z,25.62
2022-12-08T04:17:06.328Z,25.65
2022-12-08T04:17:36.450Z,25.61
2022-12-08T04:18:06.438Z,25.67
2022-12-08T04:18:36.443Z,25.65
2022-12-08T04:19:06.554Z,25.67
2022-12-08T04:19:36.699Z,25.71
2022-12-08T04:20:07.134Z,25.70
2022-12-08T04:20:36.698Z,25.71
2022-12-08T04:21:06.692Z,25.72
2022-12-08T04:21:36.688Z,25.74
2022-12-08T04:22:06.682Z,25.77
2022-12-08T04:22:36.800Z,25.78
2022-12-08T04:23:06.924Z,25.79
2022-12-08T04:23:36.978Z,25.79
2022-12-08T04:24:07.094Z,25.81
2022-12-08T04:24:37.214Z,25.81
2022-12-08T04:25:07.214Z,25.81
2022-12-08T04:25:37.207Z,25.82
2022-12-08T04:26:07.203Z,25.85
2022-12-08T04:26:37.323Z,25.85
2022-12-08T04:27:07.316Z,25.84
2022-12-08T04:27:37.323Z,25.87
2022-12-08T04:28:07.321Z,25.87
2022-12-08T04:28:37.437Z,25.87
2022-12-08T04:29:07.556Z,25.88
2022-12-08T04:29:37.671Z,25.91
2022-12-08T04:30:08.039Z,25.91
2022-12-08T04:30:37.834Z,25.93
2022-12-08T04:31:07.876Z,25.95
2022-12-08T04:31:37.984Z,25.92
2022-12-08T04:32:07.874Z,25.93
2022-12-08T04:32:41.642Z,25.91
2022-12-08T04:33:07.894Z,25.93
2022-12-08T04:33:37.892Z,25.93
2022-12-08T04:34:08.004Z,25.96
2022-12-08T04:34:38.124Z,25.96
2022-12-08T04:35:08.268Z,25.96
2022-12-08T04:35:38.362Z,26.00
2022-12-08T04:36:08.354Z,25.98
2022-12-08T04:36:38.356Z,25.99
2022-12-08T04:37:08.350Z,26.02
2022-12-08T04:37:38.469Z,26.02
2022-12-08T04:38:08.479Z,26.02
2022-12-08T04:38:38.474Z,26.00
2022-12-08T04:39:08.588Z,26.02
2022-12-08T04:39:38.599Z,26.03
2022-12-08T04:40:08.716Z,26.03
2022-12-08T04:40:38.834Z,26.03
2022-12-08T04:41:08.951Z,26.06
2022-12-08T04:41:38.947Z,26.06
2022-12-08T04:42:08.945Z,26.09
2022-12-08T04:42:39.060Z,26.06
2022-12-08T04:43:09.066Z,26.09
2022-12-08T04:43:39.068Z,26.10
2022-12-08T04:44:09.057Z,26.12
2022-12-08T04:44:39.062Z,26.10
2022-12-08T04:45:09.178Z,26.10
2022-12-08T04:45:39.178Z,26.13
2022-12-08T04:46:09.470Z,26.13
2022-12-08T04:46:43.387Z,26.12
2022-12-08T04:47:09.506Z,26.13
2022-12-08T04:47:39.406Z,26.13
2022-12-08T04:48:09.519Z,26.13
2022-12-08T04:48:39.531Z,26.13
2022-12-08T04:49:09.532Z,26.16
2022-12-08T04:49:39.648Z,26.16
2022-12-08T04:50:09.737Z,26.15
2022-12-08T04:50:39.842Z,26.16
2022-12-08T04:51:09.901Z,26.17
2022-12-08T04:51:39.981Z,26.16
2022-12-08T04:52:10.063Z,26.16
2022-12-08T04:52:40.147Z,26.17
2022-12-08T04:53:10.227Z,26.19
2022-12-08T04:53:46.127Z,26.17
2022-12-08T04:54:10.314Z,26.16
2022-12-08T04:54:40.393Z,26.19
2022-12-08T04:55:10.476Z,26.19
2022-12-08T04:55:40.567Z,26.17
2022-12-08T04:56:10.644Z,26.19
2022-12-08T04:56:40.728Z,26.17
2022-12-08T04:57:10.812Z,26.22
2022-12-08T04:57:40.888Z,26.22
2022-12-08T04:58:10.991Z,26.20
2022-12-08T04:58:41.074Z,26.22
2022-12-08T04:59:11.153Z,26.23
2022-12-08T04:59:41.237Z,26.23
2022-12-08T05:00:11.232Z,26.24
2022-12-08T05:00:41.351Z,26.23
2022-12-08T05:01:11.545Z,26.23
2022-12-08T05:01:41.672Z,26.26
2022-12-08T05:02:11.781Z,26.26
2022-12-08T05:02:41.768Z,26.24
2022-12-08T05:03:11.752Z,26.29
2022-12-08T05:03:41.750Z,26.32
2022-12-08T05:04:11.877Z,26.32
2022-12-08T05:04:41.858Z,26.32
2022-12-08T05:05:11.984Z,26.30
2022-12-08T05:05:41.973Z,26.33
2022-12-08T05:06:11.996Z,26.32
2022-12-08T05:06:41.960Z,26.33
2022-12-08T05:07:12.084Z,26.33
2022-12-08T05:07:42.179Z,26.36
2022-12-08T05:08:12.258Z,26.36
2022-12-08T05:08:42.252Z,26.37
2022-12-08T05:09:12.370Z,26.37
2022-12-08T05:09:42.372Z,26.36
2022-12-08T05:10:12.488Z,26.37
2022-12-08T05:10:42.606Z,26.40
2022-12-08T05:11:12.730Z,26.39
2022-12-08T05:11:48.370Z,26.40
2022-12-08T05:12:12.735Z,26.39
2022-12-08T05:12:42.728Z,26.40
2022-12-08T05:13:12.874Z,26.41
2022-12-08T05:13:42.865Z,26.41
2022-12-08T05:14:12.861Z,26.43
2022-12-08T05:14:42.856Z,26.40
2022-12-08T05:15:12.864Z,26.41
2022-12-08T05:15:42.980Z,26.41
2022-12-08T05:16:13.253Z,26.43
2022-12-08T05:16:43.220Z,26.44
2022-12-08T05:17:13.245Z,26.44
2022-12-08T05:17:43.243Z,26.44
2022-12-08T05:18:13.273Z,26.43
2022-12-08T05:18:43.264Z,26.44
2022-12-08T05:19:13.260Z,26.47
2022-12-08T05:19:43.278Z,26.47
2022-12-08T05:20:13.376Z,26.48
2022-12-08T05:20:43.379Z,26.47
2022-12-08T05:21:13.491Z,26.50
2022-12-08T05:21:43.631Z,26.50
2022-12-08T05:22:13.604Z,26.48
2022-12-08T05:22:43.721Z,26.47
2022-12-08T05:23:13.876Z,26.47
2022-12-08T05:23:43.871Z,26.47
2022-12-08T05:24:13.868Z,26.47
2022-12-08T05:24:47.360Z,26.48
2022-12-08T05:25:14.042Z,26.51
2022-12-08T05:25:44.035Z,26.53
2022-12-08T05:26:14.151Z,26.54
2022-12-08T05:26:44.269Z,26.54
2022-12-08T05:27:14.389Z,26.50
2022-12-08T05:27:44.383Z,26.53
2022-12-08T05:28:40.263Z,26.54
2022-12-08T05:28:44.659Z,26.53
2022-12-08T05:29:14.644Z,26.53
2022-12-08T05:29:44.641Z,26.54
2022-12-08T05:30:14.631Z,26.51
2022-12-08T05:30:44.748Z,26.53
2022-12-08T05:31:14.962Z,26.55
2022-12-08T05:31:45.029Z,26.53
2022-12-08T05:32:15.035Z,26.51
2022-12-08T05:32:45.027Z,26.53
2022-12-08T05:33:15.179Z,26.51
2022-12-08T05:33:45.172Z,26.50
2022-12-08T05:34:15.170Z,26.47
2022-12-08T05:34:45.201Z,26.47
2022-12-08T05:35:15.320Z,26.48
2022-12-08T05:35:45.319Z,26.50
2022-12-08T05:36:15.437Z,26.50
2022-12-08T05:36:45.575Z,26.47
2022-12-08T05:37:15.673Z,26.48
2022-12-08T05:37:45.675Z,26.47
2022-12-08T05:38:15.687Z,26.47
2022-12-08T05:38:45.677Z,26.46
2022-12-08T05:39:15.682Z,26.47
2022-12-08T05:39:45.795Z,26.47
2022-12-08T05:40:15.796Z,26.48
2022-12-08T05:40:45.791Z,26.46
2022-12-08T05:41:15.788Z,26.44
2022-12-08T05:41:45.908Z,26.46
2022-12-08T05:42:19.347Z,26.44
2022-12-08T05:42:45.925Z,26.44
2022-12-08T05:43:16.063Z,26.43
2022-12-08T05:43:46.060Z,26.43
2022-12-08T05:44:16.057Z,26.43
2022-12-08T05:44:46.176Z,26.46
2022-12-08T05:45:16.174Z,26.41
2022-12-08T05:45:46.201Z,26.44
2022-12-08T05:46:16.326Z,26.41
2022-12-08T05:46:46.228Z,26.41
2022-12-08T05:47:16.223Z,26.39
2022-12-08T05:47:46.355Z,26.43
2022-12-08T05:48:16.349Z,26.40
2022-12-08T05:48:46.344Z,26.37
2022-12-08T05:49:16.342Z,26.40
2022-12-08T05:49:46.459Z,26.40
2022-12-08T05:50:16.541Z,26.37
2022-12-08T05:50:46.621Z,26.40
2022-12-08T05:51:16.700Z,26.39
2022-12-08T05:51:46.781Z,26.40
2022-12-08T05:52:16.943Z,26.40
2022-12-08T05:52:46.881Z,26.37
2022-12-08T05:53:16.957Z,26.37
2022-12-08T05:53:47.050Z,26.39
2022-12-08T05:54:17.135Z,26.40
2022-12-08T05:54:47.208Z,26.40
2022-12-08T05:55:17.287Z,26.39
2022-12-08T05:55:47.384Z,26.36
2022-12-08T05:56:17.449Z,26.39
2022-12-08T05:56:47.531Z,26.39
2022-12-08T05:57:17.615Z,26.37
2022-12-08T05:57:47.694Z,26.40
2022-12-08T05:58:17.775Z,26.39
2022-12-08T05:58:47.854Z,26.37
2022-12-08T05:59:17.937Z,26.40
2022-12-08T05:59:48.021Z,26.39
2022-12-08T06:00:18.138Z,26.40
2022-12-08T06:00:48.131Z,26.39
2022-12-08T06:01:18.129Z,26.41
2022-12-08T06:01:48.290Z,26.40
2022-12-08T06:02:18.420Z,26.40
2022-12-08T06:02:48.423Z,26.39
2022-12-08T06:03:18.506Z,26.36
2022-12-08T06:03:48.416Z,26.37
2022-12-08T06:04:18.416Z,26.36
2022-12-08T06:04:48.534Z,26.36
2022-12-08T06:05:18.651Z,26.36
2022-12-08T06:05:48.770Z,26.36
2022-12-08T06:06:18.890Z,26.36
2022-12-08T06:06:48.883Z,26.34
2022-12-08T06:07:18.904Z,26.37
2022-12-08T06:07:48.967Z,26.40
2022-12-08T06:08:19.091Z,26.37
2022-12-08T06:08:49.013Z,26.34
2022-12-08T06:09:19.036Z,26.37
2022-12-08T06:09:49.035Z,26.37
2022-12-08T06:10:19.150Z,26.39
2022-12-08T06:10:49.269Z,26.40
2022-12-08T06:11:19.271Z,26.39
2022-12-08T06:11:49.385Z,26.37
2022-12-08T06:12:19.502Z,26.40
2022-12-08T06:12:49.501Z,26.39
2022-12-08T06:13:19.500Z,26.40
2022-12-08T06:13:49.725Z,26.37
2022-12-08T06:14:19.696Z,26.39
2022-12-08T06:14:49.691Z,26.40
2022-12-08T06:15:19.808Z,26.37
2022-12-08T06:15:49.801Z,26.41
2022-12-08T06:16:19.825Z,26.41
2022-12-08T06:16:49.880Z,26.41
2022-12-08T06:17:19.852Z,26.41
2022-12-08T06:17:49.972Z,26.44
2022-12-08T06:18:20.093Z,26.47
2022-12-08T06:18:50.082Z,26.44
2022-12-08T06:19:20.085Z,26.46
2022-12-08T06:19:50.078Z,26.47
2022-12-08T06:20:20.209Z,26.47
2022-12-08T06:20:50.202Z,26.44
2022-12-08T06:21:20.200Z,26.47
2022-12-08T06:21:50.317Z,26.48
2022-12-08T06:22:20.436Z,26.47
2022-12-08T06:22:50.457Z,26.48
2022-12-08T06:23:20.563Z,26.48
2022-12-08T06:23:50.567Z,26.48
2022-12-08T06:24:20.576Z,26.48
2022-12-08T06:24:50.570Z,26.48
2022-12-08T06:25:20.710Z,26.43
2022-12-08T06:25:50.738Z,26.47
2022-12-08T06:26:20.767Z,26.48
2022-12-08T06:26:50.884Z,26.47